sensor_id;sensor_type;location;lat;lon;timestamp;temperature;humidity
51567;DHT22;37657;53.182;5.638;2024-01-16T00:00:15;1.50;99.90
51567;DHT22;37657;53.182;5.638;2024-01-16T00:02:40;1.20;99.90
51567;DHT22;37657;53.182;5.638;2024-01-16T00:05:06;1.30;99.90
51567;DHT22;37657;53.182;5.638;2024-01-16T00:07:32;1.30;99.90
51567;DHT22;37657;53.182;5.638;2024-01-16T00:10:00;1.40;99.90
51567;DHT22;37657;53.182;5.638;2024-01-16T00:12:25;1.50;99.90
51567;DHT22;37657;53.182;5.638;2024-01-16T00:14:51;1.40;99.90
51567;DHT22;37657;53.182;5.638;2024-01-16T00:17:17;1.60;99.90
51567;DHT22;37657;53.182;5.638;2024-01-16T00:19:42;1.60;99.90
51567;DHT22;37657;53.182;5.638;2024-01-16T00:22:08;1.90;99.90
51567;DHT22;37657;53.182;5.638;2024-01-16T00:24:34;1.90;99.90
51567;DHT22;37657;53.182;5.638;2024-01-16T00:26:59;1.80;99.90
51567;DHT22;37657;53.182;5.638;2024-01-16T00:29:25;2.00;99.90
51567;DHT22;37657;53.182;5.638;2024-01-16T00:31:51;1.90;99.90
51567;DHT22;37657;53.182;5.638;2024-01-16T00:34:16;2.00;99.90
51567;DHT22;37657;53.182;5.638;2024-01-16T00:36:42;2.00;99.90
51567;DHT22;37657;53.182;5.638;2024-01-16T00:39:08;1.90;99.90
51567;DHT22;37657;53.182;5.638;2024-01-16T00:41:33;1.70;99.90
51567;DHT22;37657;53.182;5.638;2024-01-16T00:43:59;1.70;99.90
51567;DHT22;37657;53.182;5.638;2024-01-16T00:46:25;1.80;99.90
51567;DHT22;37657;53.182;5.638;2024-01-16T00:48:50;1.60;99.90
51567;DHT22;37657;53.182;5.638;2024-01-16T00:51:16;1.60;99.90
51567;DHT22;37657;53.182;5.638;2024-01-16T00:53:43;1.60;99.90
51567;DHT22;37657;53.182;5.638;2024-01-16T00:56:09;1.60;99.90
51567;DHT22;37657;53.182;5.638;2024-01-16T00:58:35;1.60;99.90
51567;DHT22;37657;53.182;5.638;2024-01-16T01:01:01;1.50;99.90
51567;DHT22;37657;53.182;5.638;2024-01-16T01:03:26;1.50;99.90
51567;DHT22;37657;53.182;5.638;2024-01-16T01:05:52;1.50;99.90
51567;DHT22;37657;53.182;5.638;2024-01-16T01:08:18;1.50;99.90
51567;DHT22;37657;53.182;5.638;2024-01-16T01:10:44;1.50;99.90
51567;DHT22;37657;53.182;5.638;2024-01-16T01:13:09;1.50;99.90
51567;DHT22;37657;53.182;5.638;2024-01-16T01:15:35;1.60;99.90
51567;DHT22;37657;53.182;5.638;2024-01-16T01:18:01;1.70;99.90
51567;DHT22;37657;53.182;5.638;2024-01-16T01:20:27;1.70;99.90
51567;DHT22;37657;53.182;5.638;2024-01-16T01:22:52;1.90;99.90
51567;DHT22;37657;53.182;5.638;2024-01-16T01:25:18;2.00;99.90
51567;DHT22;37657;53.182;5.638;2024-01-16T01:27:45;2.10;99.90
51567;DHT22;37657;53.182;5.638;2024-01-16T01:30:11;2.00;99.90
51567;DHT22;37657;53.182;5.638;2024-01-16T01:32:37;2.00;99.90
51567;DHT22;37657;53.182;5.638;2024-01-16T01:35:04;1.80;99.90
51567;DHT22;37657;53.182;5.638;2024-01-16T01:37:30;1.80;99.90
51567;DHT22;37657;53.182;5.638;2024-01-16T01:39:55;1.80;99.90
51567;DHT22;37657;53.182;5.638;2024-01-16T01:42:21;1.80;99.90
51567;DHT22;37657;53.182;5.638;2024-01-16T01:44:47;1.70;99.90
51567;DHT22;37657;53.182;5.638;2024-01-16T01:47:13;1.60;99.90
51567;DHT22;37657;53.182;5.638;2024-01-16T01:49:39;1.50;99.90
51567;DHT22;37657;53.182;5.638;2024-01-16T01:52:05;1.40;99.90
51567;DHT22;37657;53.182;5.638;2024-01-16T01:54:36;1.30;99.90
51567;DHT22;37657;53.182;5.638;2024-01-16T01:57:02;1.60;99.90
51567;DHT22;37657;53.182;5.638;2024-01-16T01:59:31;1.30;99.90
51567;DHT22;37657;53.182;5.638;2024-01-16T02:01:57;1.20;99.90
51567;DHT22;37657;53.182;5.638;2024-01-16T02:04:24;1.30;99.90
51567;DHT22;37657;53.182;5.638;2024-01-16T02:06:50;1.30;99.90
51567;DHT22;37657;53.182;5.638;2024-01-16T02:09:16;1.30;99.90
51567;DHT22;37657;53.182;5.638;2024-01-16T02:11:42;1.30;99.90
51567;DHT22;37657;53.182;5.638;2024-01-16T02:14:08;1.40;99.90
51567;DHT22;37657;53.182;5.638;2024-01-16T02:16:39;1.50;99.90
51567;DHT22;37657;53.182;5.638;2024-01-16T02:19:05;1.50;99.90
51567;DHT22;37657;53.182;5.638;2024-01-16T02:21:36;2.00;99.90
51567;DHT22;37657;53.182;5.638;2024-01-16T02:24:05;1.50;99.90
51567;DHT22;37657;53.182;5.638;2024-01-16T02:26:31;1.70;99.90
51567;DHT22;37657;53.182;5.638;2024-01-16T02:28:57;1.50;99.90
51567;DHT22;37657;53.182;5.638;2024-01-16T02:31:22;1.50;99.90
51567;DHT22;37657;53.182;5.638;2024-01-16T02:33:48;1.50;99.90
51567;DHT22;37657;53.182;5.638;2024-01-16T02:36:14;1.50;99.90
51567;DHT22;37657;53.182;5.638;2024-01-16T02:38:39;1.50;99.90
51567;DHT22;37657;53.182;5.638;2024-01-16T02:41:06;1.60;99.90
51567;DHT22;37657;53.182;5.638;2024-01-16T02:43:32;1.60;99.90
51567;DHT22;37657;53.182;5.638;2024-01-16T02:45:58;1.70;99.90
51567;DHT22;37657;53.182;5.638;2024-01-16T02:48:23;1.70;99.90
51567;DHT22;37657;53.182;5.638;2024-01-16T02:50:49;1.70;99.90
51567;DHT22;37657;53.182;5.638;2024-01-16T02:53:15;1.80;99.90
51567;DHT22;37657;53.182;5.638;2024-01-16T02:55:40;1.80;99.90
51567;DHT22;37657;53.182;5.638;2024-01-16T02:58:06;1.80;99.90
51567;DHT22;37657;53.182;5.638;2024-01-16T03:00:32;1.80;99.90
51567;DHT22;37657;53.182;5.638;2024-01-16T03:02:58;2.50;99.90
51567;DHT22;37657;53.182;5.638;2024-01-16T03:05:24;1.90;99.90
51567;DHT22;37657;53.182;5.638;2024-01-16T03:07:49;2.40;99.90
51567;DHT22;37657;53.182;5.638;2024-01-16T03:10:15;2.00;99.90
51567;DHT22;37657;53.182;5.638;2024-01-16T03:12:41;2.20;99.90
51567;DHT22;37657;53.182;5.638;2024-01-16T03:15:06;2.10;99.90
51567;DHT22;37657;53.182;5.638;2024-01-16T03:17:32;2.20;99.90
51567;DHT22;37657;53.182;5.638;2024-01-16T03:19:58;2.20;99.90
51567;DHT22;37657;53.182;5.638;2024-01-16T03:22:23;2.20;99.90
51567;DHT22;37657;53.182;5.638;2024-01-16T03:24:49;2.30;99.90
51567;DHT22;37657;53.182;5.638;2024-01-16T03:27:16;2.10;99.90
51567;DHT22;37657;53.182;5.638;2024-01-16T03:29:41;2.00;99.90
51567;DHT22;37657;53.182;5.638;2024-01-16T03:32:07;2.10;99.90
51567;DHT22;37657;53.182;5.638;2024-01-16T03:34:33;2.80;99.90
51567;DHT22;37657;53.182;5.638;2024-01-16T03:36:59;2.00;99.90
51567;DHT22;37657;53.182;5.638;2024-01-16T03:39:25;2.50;99.90
51567;DHT22;37657;53.182;5.638;2024-01-16T03:41:50;1.70;99.90
51567;DHT22;37657;53.182;5.638;2024-01-16T03:44:16;1.70;99.90
51567;DHT22;37657;53.182;5.638;2024-01-16T03:46:42;1.60;99.90
51567;DHT22;37657;53.182;5.638;2024-01-16T03:49:07;1.60;99.90
51567;DHT22;37657;53.182;5.638;2024-01-16T03:51:33;1.60;99.90
51567;DHT22;37657;53.182;5.638;2024-01-16T03:53:58;1.90;99.90
51567;DHT22;37657;53.182;5.638;2024-01-16T03:56:24;1.70;99.90
51567;DHT22;37657;53.182;5.638;2024-01-16T03:58:50;1.70;99.90
51567;DHT22;37657;53.182;5.638;2024-01-16T04:01:16;1.80;99.90
51567;DHT22;37657;53.182;5.638;2024-01-16T04:03:41;2.10;99.90
51567;DHT22;37657;53.182;5.638;2024-01-16T04:06:17;2.20;99.90
51567;DHT22;37657;53.182;5.638;2024-01-16T04:08:43;2.40;99.90
51567;DHT22;37657;53.182;5.638;2024-01-16T04:11:13;2.50;99.90
51567;DHT22;37657;53.182;5.638;2024-01-16T04:13:39;2.50;99.90
51567;DHT22;37657;53.182;5.638;2024-01-16T04:16:05;2.60;99.90
51567;DHT22;37657;53.182;5.638;2024-01-16T04:18:38;2.70;99.90
51567;DHT22;37657;53.182;5.638;2024-01-16T04:21:04;2.70;99.90
51567;DHT22;37657;53.182;5.638;2024-01-16T04:23:30;2.90;99.90
51567;DHT22;37657;53.182;5.638;2024-01-16T04:25:55;2.50;99.90
51567;DHT22;37657;53.182;5.638;2024-01-16T04:28:21;2.50;99.90
51567;DHT22;37657;53.182;5.638;2024-01-16T04:30:47;2.40;99.90
51567;DHT22;37657;53.182;5.638;2024-01-16T04:33:12;2.50;99.90
51567;DHT22;37657;53.182;5.638;2024-01-16T04:35:38;2.90;99.90
51567;DHT22;37657;53.182;5.638;2024-01-16T04:38:03;2.60;99.90
51567;DHT22;37657;53.182;5.638;2024-01-16T04:40:29;2.70;99.90
51567;DHT22;37657;53.182;5.638;2024-01-16T04:42:55;3.10;99.90
51567;DHT22;37657;53.182;5.638;2024-01-16T04:45:21;2.60;99.90
51567;DHT22;37657;53.182;5.638;2024-01-16T04:47:46;2.60;99.90
51567;DHT22;37657;53.182;5.638;2024-01-16T04:50:12;2.60;99.90
51567;DHT22;37657;53.182;5.638;2024-01-16T04:52:38;2.50;99.90
51567;DHT22;37657;53.182;5.638;2024-01-16T04:55:04;2.30;99.90
51567;DHT22;37657;53.182;5.638;2024-01-16T04:57:30;2.30;99.90
51567;DHT22;37657;53.182;5.638;2024-01-16T04:59:55;2.20;99.90
51567;DHT22;37657;53.182;5.638;2024-01-16T05:02:21;2.10;99.90
51567;DHT22;37657;53.182;5.638;2024-01-16T05:04:46;2.00;99.90
51567;DHT22;37657;53.182;5.638;2024-01-16T05:07:15;2.00;99.90
51567;DHT22;37657;53.182;5.638;2024-01-16T05:09:41;1.90;99.90
51567;DHT22;37657;53.182;5.638;2024-01-16T05:12:06;1.90;99.90
51567;DHT22;37657;53.182;5.638;2024-01-16T05:14:32;1.90;99.90
51567;DHT22;37657;53.182;5.638;2024-01-16T05:16:57;1.90;99.90
51567;DHT22;37657;53.182;5.638;2024-01-16T05:19:23;2.00;99.90
51567;DHT22;37657;53.182;5.638;2024-01-16T05:21:49;2.10;99.90
51567;DHT22;37657;53.182;5.638;2024-01-16T05:24:14;2.20;99.90
51567;DHT22;37657;53.182;5.638;2024-01-16T05:26:40;2.40;99.90
51567;DHT22;37657;53.182;5.638;2024-01-16T05:29:05;2.50;99.90
51567;DHT22;37657;53.182;5.638;2024-01-16T05:31:32;2.40;99.90
51567;DHT22;37657;53.182;5.638;2024-01-16T05:33:57;2.40;99.90
51567;DHT22;37657;53.182;5.638;2024-01-16T05:36:23;2.40;99.90
51567;DHT22;37657;53.182;5.638;2024-01-16T05:38:50;2.50;99.90
51567;DHT22;37657;53.182;5.638;2024-01-16T05:41:15;2.60;99.90
51567;DHT22;37657;53.182;5.638;2024-01-16T05:43:41;2.70;99.90
51567;DHT22;37657;53.182;5.638;2024-01-16T05:46:07;2.70;99.90
51567;DHT22;37657;53.182;5.638;2024-01-16T05:48:32;2.70;99.90
51567;DHT22;37657;53.182;5.638;2024-01-16T05:50:58;2.50;99.90
51567;DHT22;37657;53.182;5.638;2024-01-16T05:53:24;2.50;99.90
51567;DHT22;37657;53.182;5.638;2024-01-16T05:55:49;2.40;99.90
51567;DHT22;37657;53.182;5.638;2024-01-16T05:58:15;2.30;99.90
51567;DHT22;37657;53.182;5.638;2024-01-16T06:00:40;2.30;99.90
51567;DHT22;37657;53.182;5.638;2024-01-16T06:03:06;2.40;99.90
51567;DHT22;37657;53.182;5.638;2024-01-16T06:05:32;2.40;99.90
51567;DHT22;37657;53.182;5.638;2024-01-16T06:07:57;2.40;99.90
51567;DHT22;37657;53.182;5.638;2024-01-16T06:10:23;2.40;99.90
51567;DHT22;37657;53.182;5.638;2024-01-16T06:12:49;2.40;99.90
51567;DHT22;37657;53.182;5.638;2024-01-16T06:15:14;2.40;99.90
51567;DHT22;37657;53.182;5.638;2024-01-16T06:17:40;2.40;99.90
51567;DHT22;37657;53.182;5.638;2024-01-16T06:20:06;2.40;99.90
51567;DHT22;37657;53.182;5.638;2024-01-16T06:22:32;2.30;99.90
51567;DHT22;37657;53.182;5.638;2024-01-16T06:24:57;2.20;99.90
51567;DHT22;37657;53.182;5.638;2024-01-16T06:27:23;2.30;99.90
51567;DHT22;37657;53.182;5.638;2024-01-16T06:29:49;2.30;99.90
51567;DHT22;37657;53.182;5.638;2024-01-16T06:32:16;2.30;99.90
51567;DHT22;37657;53.182;5.638;2024-01-16T06:34:42;2.40;99.90
51567;DHT22;37657;53.182;5.638;2024-01-16T06:37:08;2.30;99.90
51567;DHT22;37657;53.182;5.638;2024-01-16T06:39:34;2.30;99.90
51567;DHT22;37657;53.182;5.638;2024-01-16T06:42:00;2.30;99.90
51567;DHT22;37657;53.182;5.638;2024-01-16T06:44:25;2.30;99.90
51567;DHT22;37657;53.182;5.638;2024-01-16T06:46:51;2.30;99.90
51567;DHT22;37657;53.182;5.638;2024-01-16T06:49:17;2.30;99.90
51567;DHT22;37657;53.182;5.638;2024-01-16T06:51:43;2.30;99.90
51567;DHT22;37657;53.182;5.638;2024-01-16T06:54:08;2.20;99.90
51567;DHT22;37657;53.182;5.638;2024-01-16T06:56:34;2.10;99.90
51567;DHT22;37657;53.182;5.638;2024-01-16T06:58:59;2.10;99.90
51567;DHT22;37657;53.182;5.638;2024-01-16T07:01:26;2.00;99.90
51567;DHT22;37657;53.182;5.638;2024-01-16T07:03:52;2.00;99.90
51567;DHT22;37657;53.182;5.638;2024-01-16T07:06:18;1.90;99.90
51567;DHT22;37657;53.182;5.638;2024-01-16T07:08:43;2.00;99.90
51567;DHT22;37657;53.182;5.638;2024-01-16T07:11:09;2.00;99.90
51567;DHT22;37657;53.182;5.638;2024-01-16T07:13:38;2.10;99.90
51567;DHT22;37657;53.182;5.638;2024-01-16T07:16:04;2.00;99.90
51567;DHT22;37657;53.182;5.638;2024-01-16T07:18:30;2.00;99.90
51567;DHT22;37657;53.182;5.638;2024-01-16T07:20:55;2.00;99.90
51567;DHT22;37657;53.182;5.638;2024-01-16T07:23:21;1.90;99.90
51567;DHT22;37657;53.182;5.638;2024-01-16T07:25:46;2.00;99.90
51567;DHT22;37657;53.182;5.638;2024-01-16T07:28:12;1.90;99.90
51567;DHT22;37657;53.182;5.638;2024-01-16T07:30:38;2.00;99.90
51567;DHT22;37657;53.182;5.638;2024-01-16T07:33:04;2.10;99.90
51567;DHT22;37657;53.182;5.638;2024-01-16T07:35:29;2.20;99.90
51567;DHT22;37657;53.182;5.638;2024-01-16T07:37:55;2.10;99.90
51567;DHT22;37657;53.182;5.638;2024-01-16T07:40:21;2.10;99.90
51567;DHT22;37657;53.182;5.638;2024-01-16T07:42:47;2.20;99.90
51567;DHT22;37657;53.182;5.638;2024-01-16T07:45:13;2.30;99.90
51567;DHT22;37657;53.182;5.638;2024-01-16T07:47:39;2.40;99.90
51567;DHT22;37657;53.182;5.638;2024-01-16T07:50:05;2.50;99.90
51567;DHT22;37657;53.182;5.638;2024-01-16T07:52:32;2.40;99.90
51567;DHT22;37657;53.182;5.638;2024-01-16T07:54:57;2.50;99.90
51567;DHT22;37657;53.182;5.638;2024-01-16T07:57:23;2.60;99.90
51567;DHT22;37657;53.182;5.638;2024-01-16T07:59:48;2.80;99.90
51567;DHT22;37657;53.182;5.638;2024-01-16T08:02:14;2.50;99.90
51567;DHT22;37657;53.182;5.638;2024-01-16T08:04:40;2.60;99.90
51567;DHT22;37657;53.182;5.638;2024-01-16T08:07:06;2.70;99.90
51567;DHT22;37657;53.182;5.638;2024-01-16T08:09:32;3.00;99.90
51567;DHT22;37657;53.182;5.638;2024-01-16T08:11:58;2.50;99.90
51567;DHT22;37657;53.182;5.638;2024-01-16T08:14:23;2.50;99.90
51567;DHT22;37657;53.182;5.638;2024-01-16T08:16:49;2.50;99.90
51567;DHT22;37657;53.182;5.638;2024-01-16T08:19:15;2.30;99.90
51567;DHT22;37657;53.182;5.638;2024-01-16T08:21:40;2.60;99.90
51567;DHT22;37657;53.182;5.638;2024-01-16T08:24:09;2.80;99.90
51567;DHT22;37657;53.182;5.638;2024-01-16T08:26:35;2.50;99.90
51567;DHT22;37657;53.182;5.638;2024-01-16T08:29:00;2.40;99.90
51567;DHT22;37657;53.182;5.638;2024-01-16T08:31:26;2.60;99.90
51567;DHT22;37657;53.182;5.638;2024-01-16T08:33:52;2.50;99.90
51567;DHT22;37657;53.182;5.638;2024-01-16T08:36:21;2.60;99.90
51567;DHT22;37657;53.182;5.638;2024-01-16T08:38:47;2.40;99.90
51567;DHT22;37657;53.182;5.638;2024-01-16T08:41:13;2.60;99.90
51567;DHT22;37657;53.182;5.638;2024-01-16T08:43:38;2.70;99.90
51567;DHT22;37657;53.182;5.638;2024-01-16T08:46:04;2.60;99.90
51567;DHT22;37657;53.182;5.638;2024-01-16T08:48:29;2.70;99.90
51567;DHT22;37657;53.182;5.638;2024-01-16T08:50:55;2.80;99.90
51567;DHT22;37657;53.182;5.638;2024-01-16T08:53:21;2.90;99.90
51567;DHT22;37657;53.182;5.638;2024-01-16T08:55:48;2.80;99.90
51567;DHT22;37657;53.182;5.638;2024-01-16T08:58:14;2.60;99.90
51567;DHT22;37657;53.182;5.638;2024-01-16T09:00:40;2.60;99.90
51567;DHT22;37657;53.182;5.638;2024-01-16T09:03:06;2.40;99.90
51567;DHT22;37657;53.182;5.638;2024-01-16T09:05:33;2.30;99.90
51567;DHT22;37657;53.182;5.638;2024-01-16T09:08:04;2.20;99.90
51567;DHT22;37657;53.182;5.638;2024-01-16T09:10:29;2.30;99.90
51567;DHT22;37657;53.182;5.638;2024-01-16T09:12:55;2.30;99.90
51567;DHT22;37657;53.182;5.638;2024-01-16T09:15:21;2.40;99.90
51567;DHT22;37657;53.182;5.638;2024-01-16T09:17:46;2.30;99.90
51567;DHT22;37657;53.182;5.638;2024-01-16T09:20:12;2.60;99.90
51567;DHT22;37657;53.182;5.638;2024-01-16T09:22:38;2.50;99.90
51567;DHT22;37657;53.182;5.638;2024-01-16T09:25:04;2.60;99.90
51567;DHT22;37657;53.182;5.638;2024-01-16T09:27:31;2.80;99.90
51567;DHT22;37657;53.182;5.638;2024-01-16T09:29:56;2.80;99.90
51567;DHT22;37657;53.182;5.638;2024-01-16T09:32:22;2.70;99.90
51567;DHT22;37657;53.182;5.638;2024-01-16T09:34:47;2.70;99.90
51567;DHT22;37657;53.182;5.638;2024-01-16T09:37:13;2.70;99.90
51567;DHT22;37657;53.182;5.638;2024-01-16T09:39:43;2.90;99.90
51567;DHT22;37657;53.182;5.638;2024-01-16T09:42:08;2.70;99.90
51567;DHT22;37657;53.182;5.638;2024-01-16T09:44:35;2.70;99.90
51567;DHT22;37657;53.182;5.638;2024-01-16T09:47:03;3.50;99.90
51567;DHT22;37657;53.182;5.638;2024-01-16T09:49:30;2.70;99.90
51567;DHT22;37657;53.182;5.638;2024-01-16T09:51:55;2.80;99.90
51567;DHT22;37657;53.182;5.638;2024-01-16T09:54:23;2.90;99.90
51567;DHT22;37657;53.182;5.638;2024-01-16T09:56:51;3.20;99.90
51567;DHT22;37657;53.182;5.638;2024-01-16T09:59:20;2.80;99.90
51567;DHT22;37657;53.182;5.638;2024-01-16T10:01:48;3.20;99.90
51567;DHT22;37657;53.182;5.638;2024-01-16T10:04:15;3.10;99.90
51567;DHT22;37657;53.182;5.638;2024-01-16T10:06:41;3.50;99.90
51567;DHT22;37657;53.182;5.638;2024-01-16T10:09:10;3.10;99.90
51567;DHT22;37657;53.182;5.638;2024-01-16T10:11:37;3.30;99.90
51567;DHT22;37657;53.182;5.638;2024-01-16T10:14:03;3.60;99.90
51567;DHT22;37657;53.182;5.638;2024-01-16T10:16:58;3.30;99.90
51567;DHT22;37657;53.182;5.638;2024-01-16T10:19:26;3.40;99.90
51567;DHT22;37657;53.182;5.638;2024-01-16T10:21:52;3.30;99.90
51567;DHT22;37657;53.182;5.638;2024-01-16T10:24:18;3.40;99.90
51567;DHT22;37657;53.182;5.638;2024-01-16T10:26:44;3.80;99.90
51567;DHT22;37657;53.182;5.638;2024-01-16T10:29:09;3.70;99.90
51567;DHT22;37657;53.182;5.638;2024-01-16T10:31:35;3.80;99.90
51567;DHT22;37657;53.182;5.638;2024-01-16T10:34:01;3.50;99.90
51567;DHT22;37657;53.182;5.638;2024-01-16T10:36:26;3.50;99.90
51567;DHT22;37657;53.182;5.638;2024-01-16T10:38:52;3.50;99.90
51567;DHT22;37657;53.182;5.638;2024-01-16T10:41:27;4.10;99.90
51567;DHT22;37657;53.182;5.638;2024-01-16T10:44:13;3.40;99.90
51567;DHT22;37657;53.182;5.638;2024-01-16T10:46:39;3.50;99.90
51567;DHT22;37657;53.182;5.638;2024-01-16T10:49:05;3.40;99.90
51567;DHT22;37657;53.182;5.638;2024-01-16T10:51:31;3.40;99.90
51567;DHT22;37657;53.182;5.638;2024-01-16T10:54:03;3.40;99.90
51567;DHT22;37657;53.182;5.638;2024-01-16T10:56:34;3.20;99.90
51567;DHT22;37657;53.182;5.638;2024-01-16T11:01:43;3.30;99.90
51567;DHT22;37657;53.182;5.638;2024-01-16T11:04:12;3.40;99.90
51567;DHT22;37657;53.182;5.638;2024-01-16T11:06:39;3.20;99.90
51567;DHT22;37657;53.182;5.638;2024-01-16T11:09:05;2.80;99.90
51567;DHT22;37657;53.182;5.638;2024-01-16T11:11:33;2.70;99.90
51567;DHT22;37657;53.182;5.638;2024-01-16T11:14:03;2.50;99.90
51567;DHT22;37657;53.182;5.638;2024-01-16T11:16:32;2.40;99.90
51567;DHT22;37657;53.182;5.638;2024-01-16T11:18:58;2.40;99.90
51567;DHT22;37657;53.182;5.638;2024-01-16T11:21:24;2.30;99.90
51567;DHT22;37657;53.182;5.638;2024-01-16T11:23:50;2.60;99.90
51567;DHT22;37657;53.182;5.638;2024-01-16T11:26:30;2.60;99.90
51567;DHT22;37657;53.182;5.638;2024-01-16T11:28:59;2.70;99.90
51567;DHT22;37657;53.182;5.638;2024-01-16T11:31:34;3.00;99.90
51567;DHT22;37657;53.182;5.638;2024-01-16T11:34:03;3.00;99.90
51567;DHT22;37657;53.182;5.638;2024-01-16T11:36:49;3.10;99.90
51567;DHT22;37657;53.182;5.638;2024-01-16T11:39:24;3.20;99.90
51567;DHT22;37657;53.182;5.638;2024-01-16T11:41:54;3.20;99.90
51567;DHT22;37657;53.182;5.638;2024-01-16T11:44:45;3.50;99.90
51567;DHT22;37657;53.182;5.638;2024-01-16T11:47:24;3.40;99.90
51567;DHT22;37657;53.182;5.638;2024-01-16T11:49:52;3.60;99.90
51567;DHT22;37657;53.182;5.638;2024-01-16T11:52:41;3.70;99.90
51567;DHT22;37657;53.182;5.638;2024-01-16T12:00:49;3.90;99.90
51567;DHT22;37657;53.182;5.638;2024-01-16T12:03:22;3.90;99.90
51567;DHT22;37657;53.182;5.638;2024-01-16T12:05:58;4.00;99.90
51567;DHT22;37657;53.182;5.638;2024-01-16T12:08:23;3.80;99.90
51567;DHT22;37657;53.182;5.638;2024-01-16T12:10:49;3.90;99.90
51567;DHT22;37657;53.182;5.638;2024-01-16T12:13:15;3.80;99.90
51567;DHT22;37657;53.182;5.638;2024-01-16T12:15:43;3.90;99.90
51567;DHT22;37657;53.182;5.638;2024-01-16T12:18:08;3.70;99.90
51567;DHT22;37657;53.182;5.638;2024-01-16T12:20:36;3.80;99.90
51567;DHT22;37657;53.182;5.638;2024-01-16T12:23:11;4.30;99.90
51567;DHT22;37657;53.182;5.638;2024-01-16T12:25:38;3.80;99.90
51567;DHT22;37657;53.182;5.638;2024-01-16T12:28:07;4.00;99.90
51567;DHT22;37657;53.182;5.638;2024-01-16T12:30:37;3.90;99.90
51567;DHT22;37657;53.182;5.638;2024-01-16T12:33:07;3.90;99.90
51567;DHT22;37657;53.182;5.638;2024-01-16T12:35:37;4.40;99.90
51567;DHT22;37657;53.182;5.638;2024-01-16T12:38:05;3.90;99.90
51567;DHT22;37657;53.182;5.638;2024-01-16T12:40:32;4.10;99.90
51567;DHT22;37657;53.182;5.638;2024-01-16T12:42:58;4.10;99.90
51567;DHT22;37657;53.182;5.638;2024-01-16T12:45:24;4.10;99.90
51567;DHT22;37657;53.182;5.638;2024-01-16T12:47:53;4.20;99.90
51567;DHT22;37657;53.182;5.638;2024-01-16T12:50:23;4.10;99.90
51567;DHT22;37657;53.182;5.638;2024-01-16T12:52:50;4.20;99.90
51567;DHT22;37657;53.182;5.638;2024-01-16T12:55:16;4.10;99.90
51567;DHT22;37657;53.182;5.638;2024-01-16T12:57:44;4.20;99.90
51567;DHT22;37657;53.182;5.638;2024-01-16T13:00:22;4.20;99.90
51567;DHT22;37657;53.182;5.638;2024-01-16T13:02:52;4.30;99.90
51567;DHT22;37657;53.182;5.638;2024-01-16T13:05:18;4.40;99.90
51567;DHT22;37657;53.182;5.638;2024-01-16T13:07:44;4.30;99.90
51567;DHT22;37657;53.182;5.638;2024-01-16T13:10:11;4.40;99.90
51567;DHT22;37657;53.182;5.638;2024-01-16T13:12:37;4.40;99.90
51567;DHT22;37657;53.182;5.638;2024-01-16T13:15:04;4.50;99.90
51567;DHT22;37657;53.182;5.638;2024-01-16T13:17:33;4.40;99.90
51567;DHT22;37657;53.182;5.638;2024-01-16T13:20:00;4.50;99.90
51567;DHT22;37657;53.182;5.638;2024-01-16T13:22:26;4.50;99.90
51567;DHT22;37657;53.182;5.638;2024-01-16T13:24:52;4.40;99.90
51567;DHT22;37657;53.182;5.638;2024-01-16T13:27:17;4.40;99.90
51567;DHT22;37657;53.182;5.638;2024-01-16T13:29:43;4.30;99.90
51567;DHT22;37657;53.182;5.638;2024-01-16T13:32:10;4.10;99.90
51567;DHT22;37657;53.182;5.638;2024-01-16T13:34:36;4.20;99.90
51567;DHT22;37657;53.182;5.638;2024-01-16T13:37:03;4.40;99.90
51567;DHT22;37657;53.182;5.638;2024-01-16T13:39:29;4.40;99.90
51567;DHT22;37657;53.182;5.638;2024-01-16T13:42:00;4.50;99.90
51567;DHT22;37657;53.182;5.638;2024-01-16T13:44:25;4.60;99.90
51567;DHT22;37657;53.182;5.638;2024-01-16T13:46:52;4.70;99.90
51567;DHT22;37657;53.182;5.638;2024-01-16T13:49:17;4.70;99.90
51567;DHT22;37657;53.182;5.638;2024-01-16T13:51:46;4.70;99.90
51567;DHT22;37657;53.182;5.638;2024-01-16T13:54:12;4.70;99.90
51567;DHT22;37657;53.182;5.638;2024-01-16T13:56:37;4.80;99.90
51567;DHT22;37657;53.182;5.638;2024-01-16T13:59:04;4.80;99.90
51567;DHT22;37657;53.182;5.638;2024-01-16T14:01:30;4.80;99.90
51567;DHT22;37657;53.182;5.638;2024-01-16T14:03:55;4.80;99.90
51567;DHT22;37657;53.182;5.638;2024-01-16T14:06:21;4.80;99.90
51567;DHT22;37657;53.182;5.638;2024-01-16T14:08:46;4.80;99.90
51567;DHT22;37657;53.182;5.638;2024-01-16T14:11:12;4.80;99.90
51567;DHT22;37657;53.182;5.638;2024-01-16T14:13:38;4.80;99.90
51567;DHT22;37657;53.182;5.638;2024-01-16T14:16:03;4.80;99.90
51567;DHT22;37657;53.182;5.638;2024-01-16T14:18:30;4.80;99.90
51567;DHT22;37657;53.182;5.638;2024-01-16T14:20:55;4.80;99.90
51567;DHT22;37657;53.182;5.638;2024-01-16T14:23:21;4.70;99.90
51567;DHT22;37657;53.182;5.638;2024-01-16T14:25:47;4.70;99.90
51567;DHT22;37657;53.182;5.638;2024-01-16T14:28:13;4.60;99.90
51567;DHT22;37657;53.182;5.638;2024-01-16T14:30:38;4.40;99.90
51567;DHT22;37657;53.182;5.638;2024-01-16T14:33:04;4.30;99.90
51567;DHT22;37657;53.182;5.638;2024-01-16T14:35:32;4.30;99.90
51567;DHT22;37657;53.182;5.638;2024-01-16T14:37:58;4.30;99.90
51567;DHT22;37657;53.182;5.638;2024-01-16T14:40:24;4.20;99.90
51567;DHT22;37657;53.182;5.638;2024-01-16T14:42:54;4.20;99.90
51567;DHT22;37657;53.182;5.638;2024-01-16T14:45:21;4.20;99.90
51567;DHT22;37657;53.182;5.638;2024-01-16T14:47:47;4.20;99.90
51567;DHT22;37657;53.182;5.638;2024-01-16T14:50:14;4.20;99.90
51567;DHT22;37657;53.182;5.638;2024-01-16T14:52:42;4.20;99.90
51567;DHT22;37657;53.182;5.638;2024-01-16T14:55:09;4.20;99.90
51567;DHT22;37657;53.182;5.638;2024-01-16T14:57:34;4.20;99.90
51567;DHT22;37657;53.182;5.638;2024-01-16T15:00:11;4.20;99.90
51567;DHT22;37657;53.182;5.638;2024-01-16T15:02:43;4.10;99.90
51567;DHT22;37657;53.182;5.638;2024-01-16T15:05:09;4.10;99.90
51567;DHT22;37657;53.182;5.638;2024-01-16T15:07:35;4.00;99.90
51567;DHT22;37657;53.182;5.638;2024-01-16T15:10:04;3.90;99.90
51567;DHT22;37657;53.182;5.638;2024-01-16T15:12:31;3.80;99.90
51567;DHT22;37657;53.182;5.638;2024-01-16T15:14:57;3.80;99.90
51567;DHT22;37657;53.182;5.638;2024-01-16T15:17:23;3.80;99.90
51567;DHT22;37657;53.182;5.638;2024-01-16T15:19:48;3.70;99.90
51567;DHT22;37657;53.182;5.638;2024-01-16T15:22:14;3.60;99.90
51567;DHT22;37657;53.182;5.638;2024-01-16T15:24:39;3.50;99.90
51567;DHT22;37657;53.182;5.638;2024-01-16T15:27:05;3.40;99.90
51567;DHT22;37657;53.182;5.638;2024-01-16T15:29:31;3.30;99.90
51567;DHT22;37657;53.182;5.638;2024-01-16T15:31:57;3.30;99.90
51567;DHT22;37657;53.182;5.638;2024-01-16T15:34:23;3.30;99.90
51567;DHT22;37657;53.182;5.638;2024-01-16T15:36:48;3.20;99.90
51567;DHT22;37657;53.182;5.638;2024-01-16T15:39:14;3.10;99.90
51567;DHT22;37657;53.182;5.638;2024-01-16T15:41:42;3.00;99.90
51567;DHT22;37657;53.182;5.638;2024-01-16T15:44:08;3.00;99.90
51567;DHT22;37657;53.182;5.638;2024-01-16T15:46:52;3.00;99.90
51567;DHT22;37657;53.182;5.638;2024-01-16T15:49:18;2.90;99.90